Time,TemperatureF,DewpointF,PressureIn,WindDirection,WindDirectionDegrees,WindSpeedMPH,WindSpeedGustMPH,Humidity,HourlyPrecipIn,Conditions,Clouds,dailyrainin,SoftwareType,DateUTC
2013-04-28 00:02:00,54.0,53.0,30.01,SE,143,1.0,5.0,96,0.02,,,0.09,,2013-04-28 04:02:00,
2013-04-28 00:13:00,54.0,53.0,30.01,SE,143,1.0,5.0,96,0.02,,,0.09,,2013-04-28 04:13:00,
2013-04-28 00:22:00,54.0,53.0,30.00,SSE,161,0.0,5.0,96,0.01,,,0.09,,2013-04-28 04:22:00,
2013-04-28 00:32:00,54.0,53.0,30.00,South,169,0.0,3.0,96,0.02,,,0.10,,2013-04-28 04:32:00,
2013-04-28 00:42:00,54.0,53.0,30.00,South,169,0.0,3.0,96,0.02,,,0.10,,2013-04-28 04:42:00,
2013-04-28 00:53:00,54.0,53.0,29.99,SSE,164,2.0,6.0,96,0.08,,,0.17,,2013-04-28 04:53:00,
2013-04-28 01:02:00,54.0,53.0,29.99,South,175,2.0,5.0,96,0.09,,,0.18,,2013-04-28 05:02:00,
2013-04-28 01:12:00,54.0,53.0,29.99,South,175,2.0,5.0,96,0.09,,,0.18,,2013-04-28 05:12:00,
2013-04-28 01:22:00,54.0,53.0,29.97,SE,134,2.0,9.0,96,0.10,,,0.19,,2013-04-28 05:22:00,
2013-04-28 01:32:00,54.0,53.0,29.96,SSE,161,1.0,7.0,96,0.08,,,0.19,,2013-04-28 05:32:00,
2013-04-28 01:42:00,54.0,53.0,29.96,SSE,161,1.0,7.0,96,0.08,,,0.19,,2013-04-28 05:42:00,
2013-04-28 01:52:00,54.0,53.0,29.96,SSE,163,1.0,5.0,97,0.02,,,0.19,,2013-04-28 05:52:00,
2013-04-28 02:01:00,54.0,53.0,29.96,SE,138,0.0,5.0,97,0.01,,,0.19,,2013-04-28 06:01:00,
2013-04-28 02:12:00,54.0,53.0,29.96,SE,138,0.0,5.0,97,0.01,,,0.19,,2013-04-28 06:12:00,
2013-04-28 02:21:00,54.0,53.0,29.95,SSE,163,1.0,4.0,97,0.00,,,0.19,,2013-04-28 06:21:00,
2013-04-28 02:32:00,54.0,53.0,29.95,SE,140,1.0,5.0,97,0.03,,,0.22,,2013-04-28 06:32:00,
2013-04-28 02:42:00,54.0,53.0,29.95,SE,140,1.0,5.0,97,0.03,,,0.22,,2013-04-28 06:42:00,
2013-04-28 02:52:00,54.0,53.0,29.94,SSE,167,1.0,3.0,97,0.03,,,0.22,,2013-04-28 06:52:00,
2013-04-28 03:01:00,54.0,53.0,29.93,ESE,115,1.0,4.0,97,0.03,,,0.22,,2013-04-28 07:01:00,
2013-04-28 03:11:00,54.0,53.0,29.93,ESE,115,1.0,4.0,97,0.03,,,0.22,,2013-04-28 07:11:00,
2013-04-28 03:21:00,54.0,53.0,29.92,SE,138,0.0,4.0,97,0.03,,,0.22,,2013-04-28 07:21:00,
2013-04-28 03:31:00,54.0,53.0,29.91,SSE,153,0.0,6.0,97,0.00,,,0.22,,2013-04-28 07:31:00,
2013-04-28 03:42:00,54.0,53.0,29.91,SSE,153,0.0,6.0,97,0.00,,,0.22,,2013-04-28 07:42:00,
2013-04-28 03:52:00,54.0,53.0,29.91,SE,134,2.0,5.0,97,0.00,,,0.22,,2013-04-28 07:52:00,
2013-04-28 04:02:00,54.0,53.0,29.91,SE,137,0.0,4.0,97,0.00,,,0.22,,2013-04-28 08:02:00,
2013-04-28 04:11:00,54.0,53.0,29.91,SE,137,0.0,4.0,97,0.00,,,0.22,,2013-04-28 08:11:00,
2013-04-28 04:21:00,54.0,53.0,29.91,ESE,121,0.0,1.0,97,0.01,,,0.23,,2013-04-28 08:21:00,
2013-04-28 04:32:00,54.0,53.0,29.90,SE,145,0.0,4.0,97,0.02,,,0.24,,2013-04-28 08:32:00,
2013-04-28 04:42:00,54.0,53.0,29.90,SE,145,0.0,4.0,97,0.02,,,0.24,,2013-04-28 08:42:00,
2013-04-28 04:52:00,54.0,53.0,29.89,SE,126,0.0,4.0,97,0.03,,,0.25,,2013-04-28 08:52:00,
2013-04-28 05:01:00,54.0,53.0,29.89,SSE,159,1.0,4.0,97,0.03,,,0.25,,2013-04-28 09:01:00,
2013-04-28 05:11:00,54.0,53.0,29.89,SSE,159,1.0,4.0,97,0.03,,,0.25,,2013-04-28 09:11:00,
2013-04-28 05:21:00,54.0,53.0,29.88,SSW,194,0.0,2.0,97,0.03,,,0.26,,2013-04-28 09:21:00,
2013-04-28 05:33:00,54.0,53.0,29.88,SSE,165,0.0,4.0,98,0.02,,,0.26,,2013-04-28 09:33:00,
2013-04-28 05:42:00,54.0,53.0,29.88,SSE,165,0.0,4.0,98,0.02,,,0.26,,2013-04-28 09:42:00,
2013-04-28 05:53:00,54.0,53.0,29.88,SE,142,0.0,6.0,98,0.02,,,0.27,,2013-04-28 09:53:00,
2013-04-28 06:03:00,54.0,53.0,29.89,South,174,0.0,5.0,98,0.03,,,0.28,,2013-04-28 10:03:00,
2013-04-28 06:12:00,54.0,53.0,29.89,South,174,0.0,5.0,98,0.03,,,0.28,,2013-04-28 10:12:00,
2013-04-28 06:22:00,54.0,53.0,29.88,SSE,155,3.0,8.0,98,0.02,,,0.28,,2013-04-28 10:22:00,
2013-04-28 06:32:00,54.0,53.0,29.88,SSE,167,0.0,3.0,98,0.03,,,0.29,,2013-04-28 10:32:00,
2013-04-28 06:42:00,54.0,53.0,29.88,SSE,167,0.0,3.0,98,0.03,,,0.29,,2013-04-28 10:42:00,
2013-04-28 06:52:00,54.0,53.0,29.87,SSW,195,0.0,4.0,98,0.02,,,0.29,,2013-04-28 10:52:00,
2013-04-28 07:02:00,54.0,53.0,29.87,SE,133,0.0,3.0,98,0.01,,,0.29,,2013-04-28 11:02:00,
2013-04-28 07:11:00,54.0,53.0,29.87,SE,133,0.0,3.0,98,0.01,,,0.29,,2013-04-28 11:11:00,
2013-04-28 07:22:00,54.0,53.0,29.87,South,190,1.0,4.0,98,0.01,,,0.29,,2013-04-28 11:22:00,
2013-04-28 07:32:00,54.0,53.0,29.87,SSE,148,1.0,3.0,98,0.00,,,0.29,,2013-04-28 11:32:00,
2013-04-28 07:42:00,54.0,53.0,29.87,SSE,148,1.0,3.0,98,0.00,,,0.29,,2013-04-28 11:42:00,
2013-04-28 07:52:00,54.0,53.0,29.88,SSE,156,0.0,3.0,98,0.00,,,0.29,,2013-04-28 11:52:00,
2013-04-28 08:01:00,54.0,53.0,29.87,SSE,149,0.0,4.0,98,0.02,,,0.31,,2013-04-28 12:01:00,
2013-04-28 08:11:00,54.0,53.0,29.87,SSE,149,0.0,4.0,98,0.02,,,0.31,,2013-04-28 12:11:00,
2013-04-28 08:21:00,54.0,53.0,29.87,SSE,151,1.0,4.0,98,0.02,,,0.31,,2013-04-28 12:21:00,
2013-04-28 08:32:00,54.0,53.0,29.87,SE,132,0.0,3.0,98,0.03,,,0.32,,2013-04-28 12:32:00,
2013-04-28 08:42:00,54.0,53.0,29.87,SE,132,0.0,3.0,98,0.03,,,0.32,,2013-04-28 12:42:00,
2013-04-28 08:52:00,54.0,53.0,29.87,ESE,116,0.0,2.0,98,0.04,,,0.33,,2013-04-28 12:52:00,
2013-04-28 09:02:00,54.0,53.0,29.87,ESE,116,0.0,1.0,98,0.04,,,0.35,,2013-04-28 13:02:00,
2013-04-28 09:11:00,54.0,53.0,29.87,ESE,116,0.0,1.0,98,0.04,,,0.35,,2013-04-28 13:11:00,
2013-04-28 09:21:00,54.0,53.0,29.87,ESE,116,0.0,2.0,98,0.04,,,0.35,,2013-04-28 13:21:00,
2013-04-28 09:31:00,54.0,53.0,29.87,ESE,115,0.0,2.0,98,0.04,,,0.36,,2013-04-28 13:31:00,
2013-04-28 09:42:00,54.0,53.0,29.87,ESE,115,0.0,2.0,98,0.04,,,0.36,,2013-04-28 13:42:00,
2013-04-28 09:52:00,54.0,53.0,29.86,SE,128,0.0,2.0,98,0.03,,,0.36,,2013-04-28 13:52:00,
2013-04-28 10:01:00,55.0,54.0,29.86,SE,128,0.0,1.0,98,0.01,,,0.36,,2013-04-28 14:01:00,
2013-04-28 10:11:00,55.0,54.0,29.86,SE,128,0.0,1.0,98,0.01,,,0.36,,2013-04-28 14:11:00,
2013-04-28 10:21:00,55.0,54.0,29.86,SE,128,0.0,2.0,98,0.01,,,0.36,,2013-04-28 14:21:00,
2013-04-28 10:32:00,55.0,54.0,29.85,SE,128,0.0,3.0,98,0.00,,,0.36,,2013-04-28 14:32:00,
2013-04-28 10:42:00,55.0,54.0,29.85,SE,128,0.0,3.0,98,0.00,,,0.36,,2013-04-28 14:42:00,
2013-04-28 10:52:00,55.0,54.0,29.85,SSE,158,0.0,4.0,98,0.00,,,0.36,,2013-04-28 14:52:00,
2013-04-28 11:01:00,56.0,55.0,29.85,SSE,168,1.0,3.0,98,0.00,,,0.36,,2013-04-28 15:01:00,
2013-04-28 11:12:00,56.0,55.0,29.85,SSE,168,1.0,3.0,98,0.00,,,0.36,,2013-04-28 15:12:00,
2013-04-28 11:21:00,56.0,55.0,29.85,SSE,164,0.0,2.0,98,0.00,,,0.36,,2013-04-28 15:21:00,
2013-04-28 11:32:00,56.0,55.0,29.85,SSE,164,0.0,2.0,98,0.00,,,0.36,,2013-04-28 15:32:00,
2013-04-28 11:42:00,56.0,55.0,29.85,SSE,164,0.0,2.0,98,0.00,,,0.36,,2013-04-28 15:42:00,
2013-04-28 11:53:00,56.0,55.0,29.85,SSE,165,0.0,1.0,98,0.00,,,0.36,,2013-04-28 15:53:00,
2013-04-28 12:03:00,56.0,55.0,29.85,SSE,164,0.0,1.0,98,0.00,,,0.36,,2013-04-28 16:03:00,
2013-04-28 12:13:00,56.0,55.0,29.85,SSE,164,0.0,1.0,98,0.00,,,0.36,,2013-04-28 16:13:00,
2013-04-28 12:23:00,57.0,56.0,29.86,SSE,165,0.0,0.0,98,0.00,,,0.36,,2013-04-28 16:23:00,
2013-04-28 12:33:00,57.0,56.0,29.86,SSE,164,0.0,0.0,98,0.00,,,0.36,,2013-04-28 16:33:00,
2013-04-28 12:42:00,57.0,56.0,29.86,SSE,164,0.0,0.0,98,0.00,,,0.36,,2013-04-28 16:42:00,
2013-04-28 12:52:00,57.0,56.0,29.86,SSE,165,0.0,0.0,98,0.00,,,0.36,,2013-04-28 16:52:00,
2013-04-28 13:02:00,57.0,56.0,29.85,SSE,165,0.0,0.0,98,0.00,,,0.36,,2013-04-28 17:02:00,
2013-04-28 13:12:00,57.0,56.0,29.85,SSE,165,0.0,0.0,98,0.00,,,0.36,,2013-04-28 17:12:00,
2013-04-28 13:22:00,57.0,56.0,29.86,SSE,165,0.0,2.0,98,0.00,,,0.36,,2013-04-28 17:22:00,
2013-04-28 13:32:00,57.0,56.0,29.85,NW,309,1.0,3.0,97,0.00,,,0.36,,2013-04-28 17:32:00,
2013-04-28 13:42:00,57.0,56.0,29.85,NW,309,1.0,3.0,97,0.00,,,0.36,,2013-04-28 17:42:00,
2013-04-28 13:52:00,57.0,56.0,29.85,NW,309,0.0,2.0,97,0.00,,,0.36,,2013-04-28 17:52:00,
2013-04-28 14:02:00,57.0,56.0,29.85,NW,309,0.0,1.0,97,0.00,,,0.36,,2013-04-28 18:02:00,
2013-04-28 14:12:00,57.0,56.0,29.85,NW,309,0.0,1.0,97,0.00,,,0.36,,2013-04-28 18:12:00,
2013-04-28 14:22:00,58.0,57.0,29.85,NW,309,0.0,2.0,97,0.00,,,0.36,,2013-04-28 18:22:00,
2013-04-28 14:32:00,58.0,57.0,29.85,NW,309,0.0,1.0,97,0.00,,,0.36,,2013-04-28 18:32:00,
2013-04-28 14:42:00,58.0,57.0,29.85,NW,309,0.0,1.0,97,0.00,,,0.36,,2013-04-28 18:42:00,
2013-04-28 14:52:00,58.0,57.0,29.85,NW,326,0.0,2.0,97,0.00,,,0.36,,2013-04-28 18:52:00,
2013-04-28 15:02:00,59.0,58.0,29.85,NW,326,1.0,4.0,97,0.00,,,0.36,,2013-04-28 19:02:00,
2013-04-28 15:11:00,59.0,58.0,29.85,NW,326,1.0,4.0,97,0.00,,,0.36,,2013-04-28 19:11:00,
2013-04-28 15:21:00,60.0,59.0,29.85,ENE,71,0.0,2.0,95,0.00,,,0.36,,2013-04-28 19:21:00,
2013-04-28 15:31:00,60.0,58.0,29.85,ENE,57,1.0,7.0,92,0.00,,,0.36,,2013-04-28 19:31:00,
2013-04-28 15:41:00,60.0,58.0,29.85,ENE,57,1.0,7.0,92,0.00,,,0.36,,2013-04-28 19:41:00,
2013-04-28 15:52:00,60.0,58.0,29.85,North,10,2.0,4.0,92,0.00,,,0.36,,2013-04-28 19:52:00,
2013-04-28 16:02:00,60.0,57.0,29.85,NE,50,1.0,2.0,91,0.00,,,0.36,,2013-04-28 20:02:00,
2013-04-28 16:11:00,60.0,57.0,29.85,NE,50,1.0,2.0,91,0.00,,,0.36,,2013-04-28 20:11:00,
2013-04-28 16:22:00,60.0,57.0,29.85,NNE,28,3.0,5.0,91,0.00,,,0.36,,2013-04-28 20:22:00,
2013-04-28 16:32:00,60.0,57.0,29.84,NNE,21,1.0,5.0,91,0.00,,,0.36,,2013-04-28 20:32:00,
2013-04-28 16:42:00,60.0,57.0,29.84,NNE,21,1.0,5.0,91,0.00,,,0.36,,2013-04-28 20:42:00,
2013-04-28 16:52:00,59.0,57.0,29.84,NE,51,1.0,7.0,92,0.01,,,0.37,,2013-04-28 20:52:00,
2013-04-28 17:01:00,59.0,57.0,29.84,NNE,19,0.0,4.0,93,0.01,,,0.37,,2013-04-28 21:01:00,
2013-04-28 17:11:00,59.0,57.0,29.84,NNE,19,0.0,4.0,93,0.01,,,0.37,,2013-04-28 21:11:00,
2013-04-28 17:22:00,60.0,57.0,29.84,NNE,20,0.0,1.0,91,0.01,,,0.37,,2013-04-28 21:22:00,
2013-04-28 17:32:00,60.0,57.0,29.84,NNE,19,0.0,2.0,90,0.01,,,0.37,,2013-04-28 21:32:00,
2013-04-28 17:42:00,60.0,57.0,29.84,NNE,19,0.0,2.0,90,0.01,,,0.37,,2013-04-28 21:42:00,
2013-04-28 17:53:00,59.0,56.0,29.85,NNE,20,0.0,4.0,90,0.00,,,0.37,,2013-04-28 21:53:00,
2013-04-28 18:03:00,59.0,56.0,29.85,NNE,33,1.0,3.0,91,0.00,,,0.37,,2013-04-28 22:03:00,
2013-04-28 18:12:00,59.0,56.0,29.85,NNE,33,1.0,3.0,91,0.00,,,0.37,,2013-04-28 22:12:00,
2013-04-28 18:22:00,59.0,57.0,29.85,NNE,33,0.0,1.0,92,0.00,,,0.37,,2013-04-28 22:22:00,
2013-04-28 18:33:00,59.0,56.0,29.85,NE,34,0.0,0.0,91,0.00,,,0.37,,2013-04-28 22:33:00,
2013-04-28 18:42:00,59.0,56.0,29.85,NE,34,0.0,0.0,91,0.00,,,0.37,,2013-04-28 22:42:00,
2013-04-28 18:52:00,59.0,56.0,29.85,NNE,33,0.0,0.0,91,0.00,,,0.37,,2013-04-28 22:52:00,
2013-04-28 19:02:00,59.0,56.0,29.85,NE,34,0.0,0.0,91,0.00,,,0.37,,2013-04-28 23:02:00,
2013-04-28 19:12:00,59.0,56.0,29.85,NE,34,0.0,0.0,91,0.00,,,0.37,,2013-04-28 23:12:00,
2013-04-28 19:22:00,59.0,56.0,29.85,NNE,33,0.0,1.0,91,0.00,,,0.37,,2013-04-28 23:22:00,
2013-04-28 19:32:00,59.0,57.0,29.85,NNE,29,1.0,2.0,92,0.00,,,0.37,,2013-04-28 23:32:00,
2013-04-28 19:42:00,59.0,57.0,29.85,NNE,29,1.0,2.0,92,0.00,,,0.37,,2013-04-28 23:42:00,
2013-04-28 19:52:00,59.0,57.0,29.84,NNE,29,0.0,1.0,92,0.00,,,0.37,,2013-04-28 23:52:00,
2013-04-28 20:01:00,59.0,57.0,29.84,NNE,29,0.0,1.0,93,0.00,,,0.37,,2013-04-29 00:01:00,
2013-04-28 20:11:00,59.0,57.0,29.84,NNE,29,0.0,1.0,93,0.00,,,0.37,,2013-04-29 00:11:00,
2013-04-28 20:22:00,58.0,56.0,29.84,NNE,29,0.0,1.0,93,0.00,,,0.37,,2013-04-29 00:22:00,
2013-04-28 20:32:00,58.0,56.0,29.85,NNE,29,0.0,0.0,93,0.00,,,0.36,,2013-04-29 00:32:00,
2013-04-28 20:41:00,58.0,56.0,29.85,NNE,29,0.0,0.0,93,0.00,,,0.36,,2013-04-29 00:41:00,
2013-04-28 20:52:00,58.0,56.0,29.85,NNE,29,0.0,0.0,94,0.00,,,0.36,,2013-04-29 00:52:00,
2013-04-28 21:01:00,58.0,56.0,29.86,NNE,29,0.0,1.0,94,0.00,,,0.36,,2013-04-29 01:01:00,
2013-04-28 21:12:00,58.0,56.0,29.86,NNE,29,0.0,0.0,94,0.00,,,0.36,,2013-04-29 01:12:00,
2013-04-28 21:21:00,58.0,56.0,29.86,NNE,29,0.0,0.0,94,0.00,,,0.36,,2013-04-29 01:21:00,
2013-04-28 21:32:00,58.0,56.0,29.86,NNE,29,0.0,1.0,94,0.00,,,0.35,,2013-04-29 01:32:00,
2013-04-28 21:42:00,58.0,56.0,29.86,NNE,29,0.0,1.0,94,0.00,,,0.35,,2013-04-29 01:42:00,
2013-04-28 21:52:00,57.0,56.0,29.87,NNE,29,0.0,2.0,95,0.00,,,0.35,,2013-04-29 01:52:00,
2013-04-28 22:02:00,57.0,56.0,29.87,NNE,29,0.0,3.0,95,0.00,,,0.35,,2013-04-29 02:02:00,
2013-04-28 22:11:00,57.0,56.0,29.87,NNE,29,0.0,3.0,95,0.00,,,0.35,,2013-04-29 02:11:00,
2013-04-28 22:21:00,57.0,56.0,29.87,NNE,29,0.0,3.0,95,0.00,,,0.35,,2013-04-29 02:21:00,
2013-04-28 22:32:00,57.0,56.0,29.88,NNE,29,0.0,2.0,95,0.00,,,0.34,,2013-04-29 02:32:00,
2013-04-28 22:41:00,57.0,56.0,29.88,NNE,29,0.0,2.0,95,0.00,,,0.34,,2013-04-29 02:41:00,
2013-04-28 22:52:00,57.0,56.0,29.88,NNE,29,0.0,1.0,95,0.00,,,0.34,,2013-04-29 02:52:00,
2013-04-28 23:01:00,57.0,56.0,29.88,NNE,29,0.0,1.0,95,0.00,,,0.34,,2013-04-29 03:01:00,
2013-04-28 23:12:00,57.0,56.0,29.88,NNE,29,0.0,1.0,95,0.00,,,0.34,,2013-04-29 03:12:00,
2013-04-28 23:21:00,57.0,56.0,29.88,NNE,29,0.0,1.0,95,0.00,,,0.34,,2013-04-29 03:21:00,
2013-04-28 23:33:00,57.0,56.0,29.88,NNE,29,0.0,1.0,95,0.00,,,0.29,,2013-04-29 03:33:00,
2013-04-28 23:42:00,57.0,56.0,29.88,NNE,29,0.0,1.0,95,0.00,,,0.29,,2013-04-29 03:42:00,
2013-04-28 23:53:00,57.0,56.0,29.88,NNE,29,0.0,0.0,95,0.00,,,0.29,,2013-04-29 03:53:00,